sensor_id;sensor_type;location;lat;lon;timestamp;pressure;altitude;pressure_sealevel;temperature;humidity
69247;BME280;56358;56.328;43.992;2023-02-04T00:01:21;100672.59;;;-2.22;75.89
69247;BME280;56358;56.328;43.992;2023-02-04T00:03:22;100600.81;;;-2.61;76.27
69247;BME280;56358;56.328;43.992;2023-02-04T00:05:22;100662.09;;;-2.22;76.18
69247;BME280;56358;56.328;43.992;2023-02-04T00:07:23;100600.72;;;-2.57;76.13
69247;BME280;56358;56.328;43.992;2023-02-04T00:09:24;100657.00;;;-2.29;76.46
69247;BME280;56358;56.328;43.992;2023-02-04T00:11:24;100559.28;;;-2.83;76.12
69247;BME280;56358;56.328;43.992;2023-02-04T00:13:25;100662.94;;;-2.20;76.24
69247;BME280;56358;56.328;43.992;2023-02-04T00:15:26;100667.28;;;-2.19;76.18
69247;BME280;56358;56.328;43.992;2023-02-04T00:17:26;100582.63;;;-2.69;76.33
69247;BME280;56358;56.328;43.992;2023-02-04T00:19:27;100669.78;;;-2.12;76.36
69247;BME280;56358;56.328;43.992;2023-02-04T00:21:27;100668.78;;;-2.07;76.17
69247;BME280;56358;56.328;43.992;2023-02-04T00:23:28;100665.25;;;-2.06;75.84
69247;BME280;56358;56.328;43.992;2023-02-04T00:25:29;100666.00;;;-2.00;75.60
69247;BME280;56358;56.328;43.992;2023-02-04T00:27:29;100667.84;;;-2.04;75.71
69247;BME280;56358;56.328;43.992;2023-02-04T00:29:30;100665.22;;;-2.04;75.92
69247;BME280;56358;56.328;43.992;2023-02-04T00:31:31;100666.09;;;-2.04;75.84
69247;BME280;56358;56.328;43.992;2023-02-04T00:33:31;100670.50;;;-2.06;75.91
69247;BME280;56358;56.328;43.992;2023-02-04T00:35:32;100675.63;;;-1.99;75.73
69247;BME280;56358;56.328;43.992;2023-02-04T00:37:33;100678.31;;;-2.03;75.54
69247;BME280;56358;56.328;43.992;2023-02-04T00:39:33;100672.19;;;-2.03;75.63
69247;BME280;56358;56.328;43.992;2023-02-04T00:41:34;100664.53;;;-2.12;75.98
69247;BME280;56358;56.328;43.992;2023-02-04T00:43:35;100650.72;;;-2.21;76.20
69247;BME280;56358;56.328;43.992;2023-02-04T00:45:35;100659.41;;;-2.19;76.30
69247;BME280;56358;56.328;43.992;2023-02-04T00:47:36;100665.59;;;-2.21;76.16
69247;BME280;56358;56.328;43.992;2023-02-04T00:49:36;100594.63;;;-2.59;76.33
69247;BME280;56358;56.328;43.992;2023-02-04T00:51:38;100665.59;;;-2.21;76.49
69247;BME280;56358;56.328;43.992;2023-02-04T00:53:39;100670.75;;;-2.16;76.41
69247;BME280;56358;56.328;43.992;2023-02-04T00:55:39;100631.16;;;-2.48;76.88
69247;BME280;56358;56.328;43.992;2023-02-04T00:57:40;100670.03;;;-2.23;77.12
69247;BME280;56358;56.328;43.992;2023-02-04T00:59:40;100607.88;;;-2.63;77.21
69247;BME280;56358;56.328;43.992;2023-02-04T01:01:41;100672.59;;;-2.22;77.12
69247;BME280;56358;56.328;43.992;2023-02-04T01:03:42;100676.94;;;-2.19;77.00
69247;BME280;56358;56.328;43.992;2023-02-04T01:05:42;100666.53;;;-2.24;77.04
69247;BME280;56358;56.328;43.992;2023-02-04T01:07:43;100589.72;;;-2.74;77.06
69247;BME280;56358;56.328;43.992;2023-02-04T01:09:43;100594.09;;;-2.73;77.07
69247;BME280;56358;56.328;43.992;2023-02-04T01:11:44;100667.56;;;-2.31;77.30
69247;BME280;56358;56.328;43.992;2023-02-04T01:13:45;100652.00;;;-2.40;77.37
69247;BME280;56358;56.328;43.992;2023-02-04T01:15:46;100663.38;;;-2.40;77.27
69247;BME280;56358;56.328;43.992;2023-02-04T01:17:46;100628.91;;;-2.65;77.28
69247;BME280;56358;56.328;43.992;2023-02-04T01:19:47;100612.47;;;-2.75;77.34
69247;BME280;56358;56.328;43.992;2023-02-04T01:21:47;100671.19;;;-2.37;77.24
69247;BME280;56358;56.328;43.992;2023-02-04T01:23:48;100679.91;;;-2.36;76.96
69247;BME280;56358;56.328;43.992;2023-02-04T01:25:49;100680.78;;;-2.36;77.00
69247;BME280;56358;56.328;43.992;2023-02-04T01:27:50;100690.47;;;-2.38;76.90
69247;BME280;56358;56.328;43.992;2023-02-04T01:29:50;100690.47;;;-2.38;76.95
69247;BME280;56358;56.328;43.992;2023-02-04T01:31:51;100680.00;;;-2.39;76.97
69247;BME280;56358;56.328;43.992;2023-02-04T01:33:52;100687.88;;;-2.39;76.68
69247;BME280;56358;56.328;43.992;2023-02-04T01:35:52;100691.47;;;-2.43;76.77
69247;BME280;56358;56.328;43.992;2023-02-04T01:37:53;100625.72;;;-2.81;77.07
69247;BME280;56358;56.328;43.992;2023-02-04T01:39:54;100682.78;;;-2.47;77.11
69247;BME280;56358;56.328;43.992;2023-02-04T01:41:54;100692.38;;;-2.46;76.83
69247;BME280;56358;56.328;43.992;2023-02-04T01:43:55;100699.22;;;-2.37;76.63
69247;BME280;56358;56.328;43.992;2023-02-04T01:45:56;100690.53;;;-2.41;76.91
69247;BME280;56358;56.328;43.992;2023-02-04T01:47:57;100679.91;;;-2.36;76.86
69247;BME280;56358;56.328;43.992;2023-02-04T01:49:58;100692.88;;;-2.28;76.61
69247;BME280;56358;56.328;43.992;2023-02-04T01:51:58;100691.13;;;-2.28;76.34
69247;BME280;56358;56.328;43.992;2023-02-04T01:53:59;100693.78;;;-2.29;76.29
69247;BME280;56358;56.328;43.992;2023-02-04T01:56:01;100635.84;;;-2.62;76.01
69247;BME280;56358;56.328;43.992;2023-02-04T01:58:01;100698.13;;;-2.28;76.21
69247;BME280;56358;56.328;43.992;2023-02-04T02:00:03;100687.75;;;-2.33;75.97
69247;BME280;56358;56.328;43.992;2023-02-04T02:04:43;100706.13;;;-2.33;76.13
69247;BME280;56358;56.328;43.992;2023-02-04T02:06:50;100704.31;;;-2.31;76.15
69247;BME280;56358;56.328;43.992;2023-02-04T02:08:52;100631.75;;;-2.77;75.87
69247;BME280;56358;56.328;43.992;2023-02-04T02:10:52;100695.16;;;-2.54;75.81
69247;BME280;56358;56.328;43.992;2023-02-04T02:12:53;100705.34;;;-2.38;75.95
69247;BME280;56358;56.328;43.992;2023-02-04T02:14:55;100624.81;;;-2.78;75.77
69247;BME280;56358;56.328;43.992;2023-02-04T02:16:56;100712.03;;;-2.23;76.04
69247;BME280;56358;56.328;43.992;2023-02-04T02:18:57;100709.38;;;-2.22;75.71
69247;BME280;56358;56.328;43.992;2023-02-04T02:21:03;100636.94;;;-2.73;75.45
69247;BME280;56358;56.328;43.992;2023-02-04T02:25:13;100712.44;;;-2.42;75.88
69247;BME280;56358;56.328;43.992;2023-02-04T02:27:14;100732.47;;;-2.38;75.88
69247;BME280;56358;56.328;43.992;2023-02-04T02:29:15;100722.06;;;-2.42;75.73
69247;BME280;56358;56.328;43.992;2023-02-04T02:31:17;100666.00;;;-2.83;75.69
69247;BME280;56358;56.328;43.992;2023-02-04T02:33:19;100731.75;;;-2.46;75.53
69247;BME280;56358;56.328;43.992;2023-02-04T02:35:20;100725.53;;;-2.40;75.71
69247;BME280;56358;56.328;43.992;2023-02-04T02:37:21;100658.97;;;-2.80;75.47
69247;BME280;56358;56.328;43.992;2023-02-04T02:39:22;100732.22;;;-2.25;75.26
69247;BME280;56358;56.328;43.992;2023-02-04T02:41:23;100730.69;;;-2.36;75.14
69247;BME280;56358;56.328;43.992;2023-02-04T02:43:26;100724.63;;;-2.39;75.52
69247;BME280;56358;56.328;43.992;2023-02-04T02:45:28;100735.19;;;-2.42;75.41
69247;BME280;56358;56.328;43.992;2023-02-04T02:47:29;100695.38;;;-2.64;75.53
69247;BME280;56358;56.328;43.992;2023-02-04T02:49:31;100736.09;;;-2.43;75.62
69247;BME280;56358;56.328;43.992;2023-02-04T02:51:34;100734.47;;;-2.49;75.72
69247;BME280;56358;56.328;43.992;2023-02-04T02:53:34;100643.03;;;-3.16;76.06
69247;BME280;56358;56.328;43.992;2023-02-04T02:55:35;100720.16;;;-2.79;76.38
69247;BME280;56358;56.328;43.992;2023-02-04T02:57:36;100738.19;;;-2.61;76.44
69247;BME280;56358;56.328;43.992;2023-02-04T02:59:36;100734.75;;;-2.64;76.32
69247;BME280;56358;56.328;43.992;2023-02-04T03:01:37;100731.28;;;-2.65;76.45
69247;BME280;56358;56.328;43.992;2023-02-04T03:03:42;100681.09;;;-2.93;76.54
69247;BME280;56358;56.328;43.992;2023-02-04T03:05:47;100735.63;;;-2.64;76.26
69247;BME280;56358;56.328;43.992;2023-02-04T03:07:50;100730.38;;;-2.64;76.39
69247;BME280;56358;56.328;43.992;2023-02-04T03:09:50;100669.94;;;-3.06;76.32
69247;BME280;56358;56.328;43.992;2023-02-04T03:11:53;100716.72;;;-2.83;76.72
69247;BME280;56358;56.328;43.992;2023-02-04T03:13:54;100720.25;;;-2.86;76.82
69247;BME280;56358;56.328;43.992;2023-02-04T03:15:56;100641.50;;;-3.28;76.74
69247;BME280;56358;56.328;43.992;2023-02-04T03:17:58;100728.84;;;-2.77;76.51
69247;BME280;56358;56.328;43.992;2023-02-04T03:19:59;100735.81;;;-2.75;76.85
69247;BME280;56358;56.328;43.992;2023-02-04T03:22:00;100722.00;;;-2.84;76.72
69247;BME280;56358;56.328;43.992;2023-02-04T03:24:01;100740.91;;;-2.67;76.76
69247;BME280;56358;56.328;43.992;2023-02-04T03:26:03;100673.50;;;-3.10;76.42
69247;BME280;56358;56.328;43.992;2023-02-04T03:28:04;100744.50;;;-2.71;76.45
69247;BME280;56358;56.328;43.992;2023-02-04T03:30:05;100739.22;;;-2.70;76.51
69247;BME280;56358;56.328;43.992;2023-02-04T03:32:06;100745.31;;;-2.67;76.55
69247;BME280;56358;56.328;43.992;2023-02-04T03:34:07;100722.84;;;-2.82;76.54
69247;BME280;56358;56.328;43.992;2023-02-04T03:36:08;100747.84;;;-2.63;76.57
69247;BME280;56358;56.328;43.992;2023-02-04T03:38:09;100759.34;;;-2.70;76.28
69247;BME280;56358;56.328;43.992;2023-02-04T03:40:10;100761.75;;;-2.58;76.41
69247;BME280;56358;56.328;43.992;2023-02-04T03:42:11;100739.19;;;-2.68;76.39
69247;BME280;56358;56.328;43.992;2023-02-04T03:44:11;100758.34;;;-2.63;76.44
69247;BME280;56358;56.328;43.992;2023-02-04T03:46:12;100765.31;;;-2.62;76.40
69247;BME280;56358;56.328;43.992;2023-02-04T03:48:13;100751.44;;;-2.68;76.48
69247;BME280;56358;56.328;43.992;2023-02-04T03:50:13;100749.56;;;-2.62;76.60
69247;BME280;56358;56.328;43.992;2023-02-04T03:52:14;100753.94;;;-2.61;76.43
69247;BME280;56358;56.328;43.992;2023-02-04T03:54:15;100765.38;;;-2.65;76.55
69247;BME280;56358;56.328;43.992;2023-02-04T03:56:16;100760.94;;;-2.60;76.53
69247;BME280;56358;56.328;43.992;2023-02-04T03:58:16;100760.94;;;-2.61;76.48
69247;BME280;56358;56.328;43.992;2023-02-04T04:00:17;100754.16;;;-2.72;76.43
69247;BME280;56358;56.328;43.992;2023-02-04T04:02:18;100777.75;;;-2.72;76.51
69247;BME280;56358;56.328;43.992;2023-02-04T04:04:19;100696.34;;;-3.15;76.62
69247;BME280;56358;56.328;43.992;2023-02-04T04:06:20;100772.53;;;-2.73;76.36
69247;BME280;56358;56.328;43.992;2023-02-04T04:08:20;100686.94;;;-3.29;76.55
69247;BME280;56358;56.328;43.992;2023-02-04T04:10:21;100795.28;;;-2.74;76.65
69247;BME280;56358;56.328;43.992;2023-02-04T04:12:21;100698.22;;;-3.24;76.73
69247;BME280;56358;56.328;43.992;2023-02-04T04:14:22;100777.00;;;-2.78;76.90
69247;BME280;56358;56.328;43.992;2023-02-04T04:16:23;100689.69;;;-3.37;76.60
69247;BME280;56358;56.328;43.992;2023-02-04T04:18:23;100636.91;;;-3.66;76.76
69247;BME280;56358;56.328;43.992;2023-02-04T04:20:24;100780.59;;;-2.82;76.61
69247;BME280;56358;56.328;43.992;2023-02-04T04:22:26;100785.56;;;-2.68;76.65
69247;BME280;56358;56.328;43.992;2023-02-04T04:24:27;100795.19;;;-2.67;76.57
69247;BME280;56358;56.328;43.992;2023-02-04T04:26:27;100779.50;;;-2.72;76.70
69247;BME280;56358;56.328;43.992;2023-02-04T04:28:28;100700.03;;;-3.27;76.21
69247;BME280;56358;56.328;43.992;2023-02-04T04:30:29;100776.88;;;-2.72;76.20
69247;BME280;56358;56.328;43.992;2023-02-04T04:32:29;100769.13;;;-2.78;76.22
69247;BME280;56358;56.328;43.992;2023-02-04T04:34:30;100640.22;;;-3.57;76.24
69247;BME280;56358;56.328;43.992;2023-02-04T04:36:31;100785.72;;;-2.78;76.11
69247;BME280;56358;56.328;43.992;2023-02-04T04:38:31;100697.38;;;-3.26;76.11
69247;BME280;56358;56.328;43.992;2023-02-04T04:40:32;100809.13;;;-2.65;75.95
69247;BME280;56358;56.328;43.992;2023-02-04T04:42:32;100776.91;;;-2.74;75.74
69247;BME280;56358;56.328;43.992;2023-02-04T04:44:33;100799.63;;;-2.71;76.07
69247;BME280;56358;56.328;43.992;2023-02-04T04:46:34;100711.50;;;-3.33;76.18
69247;BME280;56358;56.328;43.992;2023-02-04T04:48:34;100783.19;;;-2.81;76.15
69247;BME280;56358;56.328;43.992;2023-02-04T04:50:35;100801.53;;;-2.81;76.26
69247;BME280;56358;56.328;43.992;2023-02-04T04:52:35;100737.50;;;-3.21;76.38
69247;BME280;56358;56.328;43.992;2023-02-04T04:54:36;100755.88;;;-3.22;76.42
69247;BME280;56358;56.328;43.992;2023-02-04T04:56:37;100813.94;;;-2.89;76.74
69247;BME280;56358;56.328;43.992;2023-02-04T04:58:37;100717.75;;;-3.42;77.03
69247;BME280;56358;56.328;43.992;2023-02-04T05:00:38;100801.75;;;-2.93;77.18
69247;BME280;56358;56.328;43.992;2023-02-04T05:02:39;100719.47;;;-3.41;76.92
69247;BME280;56358;56.328;43.992;2023-02-04T05:04:41;100804.34;;;-2.92;77.11
69247;BME280;56358;56.328;43.992;2023-02-04T05:06:41;100715.25;;;-3.48;77.13
69247;BME280;56358;56.328;43.992;2023-02-04T05:08:42;100808.88;;;-3.01;76.98
69247;BME280;56358;56.328;43.992;2023-02-04T05:10:43;100802.78;;;-3.02;77.40
69247;BME280;56358;56.328;43.992;2023-02-04T05:12:43;100811.50;;;-3.00;77.72
69247;BME280;56358;56.328;43.992;2023-02-04T05:14:44;100822.91;;;-3.03;77.67
69247;BME280;56358;56.328;43.992;2023-02-04T05:16:44;100814.88;;;-2.93;77.41
69247;BME280;56358;56.328;43.992;2023-02-04T05:18:45;100803.59;;;-2.98;77.38
69247;BME280;56358;56.328;43.992;2023-02-04T05:20:46;100809.50;;;-2.87;77.25
69247;BME280;56358;56.328;43.992;2023-02-04T05:22:46;100818.28;;;-2.90;77.16
69247;BME280;56358;56.328;43.992;2023-02-04T05:24:47;100825.25;;;-2.87;77.01
69247;BME280;56358;56.328;43.992;2023-02-04T05:26:48;100796.75;;;-3.09;77.02
69247;BME280;56358;56.328;43.992;2023-02-04T05:28:48;100824.25;;;-2.78;76.92
69247;BME280;56358;56.328;43.992;2023-02-04T05:30:49;100832.03;;;-2.74;76.69
69247;BME280;56358;56.328;43.992;2023-02-04T05:32:49;100831.13;;;-2.73;76.32
69247;BME280;56358;56.328;43.992;2023-02-04T05:34:50;100810.44;;;-2.90;76.43
69247;BME280;56358;56.328;43.992;2023-02-04T05:36:51;100823.31;;;-2.77;76.41
69247;BME280;56358;56.328;43.992;2023-02-04T05:38:52;100842.44;;;-2.67;76.29
69247;BME280;56358;56.328;43.992;2023-02-04T05:40:52;100769.78;;;-3.17;76.09
69247;BME280;56358;56.328;43.992;2023-02-04T05:42:53;100735.06;;;-3.31;75.77
69247;BME280;56358;56.328;43.992;2023-02-04T05:44:53;100815.66;;;-2.90;75.92
69247;BME280;56358;56.328;43.992;2023-02-04T05:46:54;100860.81;;;-2.67;75.87
69247;BME280;56358;56.328;43.992;2023-02-04T05:48:55;100767.97;;;-3.12;75.92
69247;BME280;56358;56.328;43.992;2023-02-04T05:50:55;100799.13;;;-2.95;75.63
69247;BME280;56358;56.328;43.992;2023-02-04T05:52:56;100867.63;;;-2.57;75.61
69247;BME280;56358;56.328;43.992;2023-02-04T05:54:56;100780.94;;;-3.04;75.22
69247;BME280;56358;56.328;43.992;2023-02-04T05:56:57;100795.66;;;-2.95;75.27
69247;BME280;56358;56.328;43.992;2023-02-04T05:58:58;100866.66;;;-2.51;75.33
69247;BME280;56358;56.328;43.992;2023-02-04T06:00:59;100865.72;;;-2.47;75.21
69247;BME280;56358;56.328;43.992;2023-02-04T06:03:00;100869.97;;;-2.42;74.67
69247;BME280;56358;56.328;43.992;2023-02-04T06:05:01;100872.53;;;-2.37;74.84
69247;BME280;56358;56.328;43.992;2023-02-04T06:07:04;100882.19;;;-2.39;74.52
69247;BME280;56358;56.328;43.992;2023-02-04T06:09:04;100807.81;;;-2.90;74.54
69247;BME280;56358;56.328;43.992;2023-02-04T06:11:05;100848.50;;;-2.65;74.75
69247;BME280;56358;56.328;43.992;2023-02-04T06:13:06;100854.50;;;-2.57;74.59
69247;BME280;56358;56.328;43.992;2023-02-04T06:15:07;100862.22;;;-2.49;74.78
69247;BME280;56358;56.328;43.992;2023-02-04T06:17:07;100872.72;;;-2.49;74.74
69247;BME280;56358;56.328;43.992;2023-02-04T06:19:08;100883.97;;;-2.40;74.85
69247;BME280;56358;56.328;43.992;2023-02-04T06:21:09;100899.69;;;-2.38;74.91
69247;BME280;56358;56.328;43.992;2023-02-04T06:23:09;100887.34;;;-2.34;74.58
69247;BME280;56358;56.328;43.992;2023-02-04T06:25:10;100883.78;;;-2.32;74.49
69247;BME280;56358;56.328;43.992;2023-02-04T06:27:10;100885.56;;;-2.32;74.29
69247;BME280;56358;56.328;43.992;2023-02-04T06:29:11;100890.72;;;-2.28;74.23
69247;BME280;56358;56.328;43.992;2023-02-04T06:31:12;100887.22;;;-2.27;74.24
69247;BME280;56358;56.328;43.992;2023-02-04T06:33:12;100894.09;;;-2.20;73.82
69247;BME280;56358;56.328;43.992;2023-02-04T06:35:13;100882.78;;;-2.23;73.74
69247;BME280;56358;56.328;43.992;2023-02-04T06:37:15;100894.88;;;-2.16;73.59
69247;BME280;56358;56.328;43.992;2023-02-04T06:39:16;100822.91;;;-2.53;73.55
69247;BME280;56358;56.328;43.992;2023-02-04T06:41:17;100884.34;;;-2.13;73.33
69247;BME280;56358;56.328;43.992;2023-02-04T06:43:18;100893.19;;;-2.17;73.61
69247;BME280;56358;56.328;43.992;2023-02-04T06:45:19;100902.03;;;-2.24;73.60
69247;BME280;56358;56.328;43.992;2023-02-04T06:47:19;100890.56;;;-2.19;73.80
69247;BME280;56358;56.328;43.992;2023-02-04T06:49:20;100902.00;;;-2.23;73.86
69247;BME280;56358;56.328;43.992;2023-02-04T06:51:20;100869.16;;;-2.45;73.91
69247;BME280;56358;56.328;43.992;2023-02-04T06:53:21;100896.94;;;-2.32;74.06
69247;BME280;56358;56.328;43.992;2023-02-04T06:55:22;100888.44;;;-2.46;73.86
69247;BME280;56358;56.328;43.992;2023-02-04T06:57:22;100896.31;;;-2.48;73.89
69247;BME280;56358;56.328;43.992;2023-02-04T06:59:23;100814.91;;;-2.96;74.34
69247;BME280;56358;56.328;43.992;2023-02-04T07:01:25;100917.94;;;-2.30;74.25
69247;BME280;56358;56.328;43.992;2023-02-04T07:03:26;100889.34;;;-2.47;74.06
69247;BME280;56358;56.328;43.992;2023-02-04T07:05:26;100921.34;;;-2.27;73.90
69247;BME280;56358;56.328;43.992;2023-02-04T07:07:27;100925.72;;;-2.26;73.88
69247;BME280;56358;56.328;43.992;2023-02-04T07:09:28;100917.06;;;-2.31;73.62
69247;BME280;56358;56.328;43.992;2023-02-04T07:11:28;100847.72;;;-2.71;73.90
69247;BME280;56358;56.328;43.992;2023-02-04T07:13:29;100922.06;;;-2.17;73.98
69247;BME280;56358;56.328;43.992;2023-02-04T07:15:29;100923.78;;;-2.16;73.68
69247;BME280;56358;56.328;43.992;2023-02-04T07:17:30;100899.47;;;-2.26;73.86
69247;BME280;56358;56.328;43.992;2023-02-04T07:19:31;100945.53;;;-2.06;73.52
69247;BME280;56358;56.328;43.992;2023-02-04T07:21:33;100904.72;;;-2.26;73.39
69247;BME280;56358;56.328;43.992;2023-02-04T07:23:33;100931.47;;;-2.05;73.33
69247;BME280;56358;56.328;43.992;2023-02-04T07:25:34;100941.88;;;-1.99;73.17
69247;BME280;56358;56.328;43.992;2023-02-04T07:27:34;100944.41;;;-1.93;73.41
69247;BME280;56358;56.328;43.992;2023-02-04T07:29:35;100913.91;;;-2.02;72.55
69247;BME280;56358;56.328;43.992;2023-02-04T07:31:36;100932.84;;;-1.84;72.88
69247;BME280;56358;56.328;43.992;2023-02-04T07:33:36;100931.91;;;-1.81;72.48
69247;BME280;56358;56.328;43.992;2023-02-04T07:35:37;100938.91;;;-1.80;72.50
69247;BME280;56358;56.328;43.992;2023-02-04T07:37:38;100938.75;;;-1.74;72.33
69247;BME280;56358;56.328;43.992;2023-02-04T07:39:38;100917.09;;;-1.86;72.11
69247;BME280;56358;56.328;43.992;2023-02-04T07:41:39;100885.81;;;-1.98;72.30
69247;BME280;56358;56.328;43.992;2023-02-04T07:43:40;100934.97;;;-1.58;72.02
69247;BME280;56358;56.328;43.992;2023-02-04T07:45:40;100953.28;;;-1.55;71.29
69247;BME280;56358;56.328;43.992;2023-02-04T07:47:41;100953.41;;;-1.61;71.40
69247;BME280;56358;56.328;43.992;2023-02-04T07:49:42;100941.34;;;-1.71;71.39
69247;BME280;56358;56.328;43.992;2023-02-04T07:51:42;100955.28;;;-1.67;71.57
69247;BME280;56358;56.328;43.992;2023-02-04T07:53:43;100948.28;;;-1.67;71.72
69247;BME280;56358;56.328;43.992;2023-02-04T07:55:43;100946.66;;;-1.74;71.89
69247;BME280;56358;56.328;43.992;2023-02-04T07:57:44;100964.25;;;-1.78;72.10
69247;BME280;56358;56.328;43.992;2023-02-04T07:59:45;100950.06;;;-1.69;72.21
69247;BME280;56358;56.328;43.992;2023-02-04T08:01:45;100953.47;;;-1.64;71.92
69247;BME280;56358;56.328;43.992;2023-02-04T08:03:47;100947.25;;;-1.60;72.02
69247;BME280;56358;56.328;43.992;2023-02-04T08:05:48;100856.38;;;-2.15;71.83
69247;BME280;56358;56.328;43.992;2023-02-04T08:07:48;100881.50;;;-2.02;71.60
69247;BME280;56358;56.328;43.992;2023-02-04T08:09:49;100944.72;;;-1.64;71.75
69247;BME280;56358;56.328;43.992;2023-02-04T08:11:49;100956.22;;;-1.69;71.81
69247;BME280;56358;56.328;43.992;2023-02-04T08:13:50;100951.72;;;-1.65;71.76
69247;BME280;56358;56.328;43.992;2023-02-04T08:15:51;100957.88;;;-1.64;71.96
69247;BME280;56358;56.328;43.992;2023-02-04T08:17:51;100961.28;;;-1.59;72.00
69247;BME280;56358;56.328;43.992;2023-02-04T08:19:52;100943.09;;;-1.70;71.77
69247;BME280;56358;56.328;43.992;2023-02-04T08:21:53;100947.09;;;-1.52;71.89
69247;BME280;56358;56.328;43.992;2023-02-04T08:23:54;100963.38;;;-1.33;71.35
69247;BME280;56358;56.328;43.992;2023-02-04T08:25:54;100964.25;;;-1.34;71.17
69247;BME280;56358;56.328;43.992;2023-02-04T08:27:55;100937.50;;;-1.55;70.79
69247;BME280;56358;56.328;43.992;2023-02-04T08:29:56;100964.34;;;-1.37;70.70
69247;BME280;56358;56.328;43.992;2023-02-04T08:31:56;100941.63;;;-1.41;70.93
69247;BME280;56358;56.328;43.992;2023-02-04T08:33:57;100907.19;;;-1.71;70.82
69247;BME280;56358;56.328;43.992;2023-02-04T08:35:58;100933.00;;;-1.48;70.96
69247;BME280;56358;56.328;43.992;2023-02-04T08:37:59;100967.69;;;-1.30;70.74
69247;BME280;56358;56.328;43.992;2023-02-04T08:39:59;100967.03;;;-1.40;70.82
69247;BME280;56358;56.328;43.992;2023-02-04T08:42:00;100963.59;;;-1.44;70.94
69247;BME280;56358;56.328;43.992;2023-02-04T08:44:01;100974.94;;;-1.40;71.02
69247;BME280;56358;56.328;43.992;2023-02-04T08:46:01;100967.03;;;-1.40;71.38
69247;BME280;56358;56.328;43.992;2023-02-04T08:48:02;100967.72;;;-1.32;70.94
69247;BME280;56358;56.328;43.992;2023-02-04T08:50:03;100955.63;;;-1.39;70.68
69247;BME280;56358;56.328;43.992;2023-02-04T08:52:04;100959.16;;;-1.40;70.73
69247;BME280;56358;56.328;43.992;2023-02-04T08:54:06;100977.22;;;-1.25;70.63
69247;BME280;56358;56.328;43.992;2023-02-04T08:56:07;100968.28;;;-1.16;70.80
69247;BME280;56358;56.328;43.992;2023-02-04T08:58:09;100966.56;;;-1.19;70.31
69247;BME280;56358;56.328;43.992;2023-02-04T09:00:10;100914.78;;;-1.57;70.46
69247;BME280;56358;56.328;43.992;2023-02-04T09:02:11;100979.78;;;-1.20;70.54
69247;BME280;56358;56.328;43.992;2023-02-04T09:04:12;100979.63;;;-1.14;70.43
69247;BME280;56358;56.328;43.992;2023-02-04T09:06:13;100973.47;;;-1.13;70.20
69247;BME280;56358;56.328;43.992;2023-02-04T09:08:13;100984.59;;;-1.00;70.13
69247;BME280;56358;56.328;43.992;2023-02-04T09:10:15;100979.19;;;-0.94;69.60
69247;BME280;56358;56.328;43.992;2023-02-04T09:12:16;100988.94;;;-0.97;69.95
69247;BME280;56358;56.328;43.992;2023-02-04T09:14:16;100979.47;;;-1.06;69.72
69247;BME280;56358;56.328;43.992;2023-02-04T09:16:17;100988.41;;;-1.13;70.14
69247;BME280;56358;56.328;43.992;2023-02-04T09:18:18;100992.00;;;-1.17;70.35
69247;BME280;56358;56.328;43.992;2023-02-04T09:20:21;100996.16;;;-1.07;70.28
69247;BME280;56358;56.328;43.992;2023-02-04T09:22:21;100982.94;;;-1.04;70.16
69247;BME280;56358;56.328;43.992;2023-02-04T09:24:22;100965.66;;;-1.16;70.09
69247;BME280;56358;56.328;43.992;2023-02-04T09:26:23;100928.81;;;-1.57;70.15
69247;BME280;56358;56.328;43.992;2023-02-04T09:28:24;100978.03;;;-1.21;70.26
69247;BME280;56358;56.328;43.992;2023-02-04T09:30:24;100997.13;;;-1.11;70.38
69247;BME280;56358;56.328;43.992;2023-02-04T09:32:25;101005.09;;;-1.14;70.68
69247;BME280;56358;56.328;43.992;2023-02-04T09:34:26;100996.41;;;-1.20;70.78
69247;BME280;56358;56.328;43.992;2023-02-04T09:36:26;100988.75;;;-1.30;71.01
69247;BME280;56358;56.328;43.992;2023-02-04T09:38:30;101013.81;;;-1.14;70.68
69247;BME280;56358;56.328;43.992;2023-02-04T09:40:32;100992.06;;;-1.22;70.53
69247;BME280;56358;56.328;43.992;2023-02-04T09:42:34;101028.72;;;-1.13;70.66
69247;BME280;56358;56.328;43.992;2023-02-04T09:44:35;101010.28;;;-1.11;70.80
69247;BME280;56358;56.328;43.992;2023-02-04T09:46:37;101007.63;;;-1.10;70.56
69247;BME280;56358;56.328;43.992;2023-02-04T09:48:38;100923.53;;;-1.57;70.12
69247;BME280;56358;56.328;43.992;2023-02-04T09:50:38;101009.50;;;-1.15;70.20
69247;BME280;56358;56.328;43.992;2023-02-04T09:52:39;100991.28;;;-1.26;70.65
69247;BME280;56358;56.328;43.992;2023-02-04T09:54:39;101023.53;;;-1.16;70.54
69247;BME280;56358;56.328;43.992;2023-02-04T09:56:41;101018.38;;;-1.22;70.79
69247;BME280;56358;56.328;43.992;2023-02-04T09:58:42;101024.50;;;-1.20;70.69
69247;BME280;56358;56.328;43.992;2023-02-04T10:00:44;101007.69;;;-1.13;70.58
69247;BME280;56358;56.328;43.992;2023-02-04T10:02:46;101004.56;;;-1.32;70.36
69247;BME280;56358;56.328;43.992;2023-02-04T10:04:47;100941.22;;;-1.63;70.62
69247;BME280;56358;56.328;43.992;2023-02-04T10:06:48;101016.41;;;-1.11;70.40
69247;BME280;56358;56.328;43.992;2023-02-04T10:08:50;101008.44;;;-1.08;70.41
69247;BME280;56358;56.328;43.992;2023-02-04T10:10:51;100974.81;;;-1.36;70.12
69247;BME280;56358;56.328;43.992;2023-02-04T10:12:59;100999.16;;;-1.24;70.11
69247;BME280;56358;56.328;43.992;2023-02-04T10:15:00;101019.88;;;-1.09;70.22
69247;BME280;56358;56.328;43.992;2023-02-04T10:17:04;101019.91;;;-1.10;70.16
69247;BME280;56358;56.328;43.992;2023-02-04T10:19:06;100942.72;;;-1.53;70.00
69247;BME280;56358;56.328;43.992;2023-02-04T10:21:15;101020.09;;;-1.20;70.50
69247;BME280;56358;56.328;43.992;2023-02-04T10:23:16;101016.59;;;-1.20;70.53
69247;BME280;56358;56.328;43.992;2023-02-04T10:25:22;101016.38;;;-1.09;70.83
69247;BME280;56358;56.328;43.992;2023-02-04T10:27:23;100967.03;;;-1.40;70.19
69247;BME280;56358;56.328;43.992;2023-02-04T10:29:25;100940.13;;;-1.55;70.13